Klundert, Netherlands
Current Conditions -  °F | °C
As of 9:25 PM on Friday 28 Nov 2014 (Local Time) from EHWO Reporting Station
Overcast Overcast  
Wind Chill: 37°   Ceiling: 12000
Heat Index: 45°   Visibility: 6mi
Dew Point: 39°   Wind: 16mph
Humidity: 81%   Direction: 90°E
Pressure: 29.8"   Gusts: NA
Location:  51.66°N, 4.53°E
Report Text: EHWO 282025Z AUTO 09014KT 9999 OVC120 07/04 Q1009 BLU
Loading
Personal Weather Stations






























Interactive Weather Map New forecast layout! Learn more

10-Day Weather Forecast

Advertisements
Track Severe Weather on mobile